createdAt,value
2023-04-02T00:01:22.865Z,6.88
2023-04-02T00:03:53.985Z,7.32
2023-04-02T00:06:33.256Z,6.65
2023-04-02T00:09:04.639Z,6.65
2023-04-02T00:11:33.352Z,6.07
2023-04-02T00:16:27.417Z,5.63
2023-04-02T00:18:55.799Z,5.80
2023-04-02T00:21:24.309Z,6.07
2023-04-02T00:23:50.861Z,5.53
2023-04-02T00:26:24.363Z,5.45
2023-04-02T00:28:51.810Z,5.22
2023-04-02T00:31:19.303Z,5.57
2023-04-02T00:33:46.387Z,5.18
2023-04-02T00:36:12.751Z,6.05
2023-04-02T00:38:43.727Z,5.13
2023-04-02T00:41:13.885Z,4.35
2023-04-02T00:43:44.615Z,4.82
2023-04-02T00:46:14.337Z,5.22
2023-04-02T00:48:49.102Z,5.10
2023-04-02T00:51:21.656Z,5.10
2023-04-02T00:53:48.969Z,4.63
2023-04-02T00:56:27.490Z,4.50
2023-04-02T00:58:55.140Z,4.97
2023-04-02T01:01:29.707Z,5.28
2023-04-02T01:03:58.296Z,5.60
2023-04-02T01:06:29.616Z,5.60
2023-04-02T01:09:20.895Z,5.70
2023-04-02T01:11:59.408Z,5.05
2023-04-02T01:14:44.234Z,5.88
2023-04-02T01:17:10.753Z,5.13
2023-04-02T01:19:49.210Z,5.45
2023-04-02T01:22:30.907Z,5.32
2023-04-02T01:24:58.274Z,5.13
2023-04-02T01:27:27.308Z,5.45
2023-04-02T01:29:56.617Z,5.72
2023-04-02T01:32:24.149Z,5.53
2023-04-02T01:34:51.472Z,5.85
2023-04-02T01:37:29.166Z,5.50
2023-04-02T01:40:14.369Z,5.33
2023-04-02T01:42:40.999Z,5.30
2023-04-02T01:45:15.063Z,5.00
2023-04-02T01:47:42.939Z,5.28
2023-04-02T01:50:21.854Z,5.60
2023-04-02T01:52:59.609Z,6.07
2023-04-02T01:55:34.461Z,5.93
2023-04-02T01:58:01.575Z,5.22
2023-04-02T02:00:30.327Z,5.72
2023-04-02T02:02:56.888Z,5.45
2023-04-02T02:05:23.900Z,5.38
2023-04-02T02:07:51.016Z,5.75
2023-04-02T02:10:19.040Z,5.45
2023-04-02T02:12:46.350Z,5.18
2023-04-02T02:15:14.740Z,5.68
2023-04-02T02:17:41.113Z,5.88
2023-04-02T02:20:12.528Z,6.03
2023-04-02T02:22:46.845Z,6.65
2023-04-02T02:25:27.028Z,6.10
2023-04-02T02:27:53.302Z,6.18
2023-04-02T02:30:27.031Z,6.13
2023-04-02T02:33:08.655Z,5.82
2023-04-02T02:35:44.561Z,6.35
2023-04-02T02:38:35.445Z,7.10
2023-04-02T02:41:06.481Z,8.25
2023-04-02T02:43:33.804Z,6.45
2023-04-02T02:46:02.512Z,5.85
2023-04-02T02:48:34.684Z,7.35
2023-04-02T02:51:02.112Z,8.95
2023-04-02T02:53:28.431Z,7.65
2023-04-02T02:55:58.435Z,7.65
2023-04-02T02:58:27.498Z,7.90
2023-04-02T03:00:54.286Z,6.78
2023-04-02T03:03:22.243Z,6.78
2023-04-02T03:06:01.996Z,5.85
2023-04-02T03:08:48.632Z,5.78
2023-04-02T03:11:33.755Z,6.60
2023-04-02T03:14:06.916Z,5.78
2023-04-02T03:16:33.216Z,4.78
2023-04-02T03:19:24.438Z,3.70
2023-04-02T03:21:50.698Z,3.78
2023-04-02T03:24:17.677Z,3.80
2023-04-02T03:26:51.551Z,4.03
2023-04-02T03:32:12.010Z,3.85
2023-04-02T03:34:41.918Z,4.57
2023-04-02T03:37:14.509Z,4.28
2023-04-02T03:39:43.606Z,4.07
2023-04-02T03:42:18.470Z,4.80
2023-04-02T03:44:51.241Z,4.40
2023-04-02T03:47:49.948Z,4.60
2023-04-02T03:50:16.320Z,5.05
2023-04-02T03:52:42.798Z,5.60
2023-04-02T03:55:15.819Z,5.00
2023-04-02T03:57:55.788Z,4.82
2023-04-02T04:00:41.318Z,5.20
2023-04-02T04:03:13.443Z,6.60
2023-04-02T04:05:46.555Z,7.20
2023-04-02T04:08:15.814Z,6.45
2023-04-02T04:10:43.147Z,6.97
2023-04-02T04:13:12.333Z,7.45
2023-04-02T04:15:42.402Z,7.40
2023-04-02T04:18:12.284Z,7.05
2023-04-02T04:20:57.025Z,6.57
2023-04-02T04:23:32.615Z,6.07
2023-04-02T04:26:01.839Z,6.35
2023-04-02T04:28:41.587Z,6.50
2023-04-02T04:31:17.965Z,7.03
2023-04-02T04:33:46.730Z,5.55
2023-04-02T04:38:40.832Z,5.80
2023-04-02T04:41:15.543Z,5.53
2023-04-02T04:43:54.402Z,5.55
2023-04-02T04:46:25.535Z,5.03
2023-04-02T04:49:00.658Z,4.85
2023-04-02T04:51:42.379Z,4.70
2023-04-02T04:54:15.662Z,4.65
2023-04-02T04:56:45.554Z,4.60
2023-04-02T04:59:18.978Z,5.00
2023-04-02T05:01:45.281Z,4.55
2023-04-02T05:04:28.068Z,4.88
2023-04-02T05:06:57.486Z,4.03
2023-04-02T05:09:36.269Z,4.13
2023-04-02T05:12:10.769Z,4.03
2023-04-02T05:14:42.388Z,4.15
2023-04-02T05:17:19.514Z,3.92
2023-04-02T05:19:59.256Z,3.60
2023-04-02T05:22:55.178Z,3.63
2023-04-02T05:25:24.652Z,3.58
2023-04-02T05:28:02.103Z,3.70
2023-04-02T05:30:28.626Z,4.40
2023-04-02T05:33:05.182Z,2.90
2023-04-02T05:35:34.658Z,2.60
2023-04-02T05:38:04.517Z,3.00
2023-04-02T05:40:33.411Z,3.10
2023-04-02T05:43:00.689Z,2.67
2023-04-02T05:45:27.006Z,3.30
2023-04-02T05:47:54.480Z,3.80
2023-04-02T05:50:27.087Z,2.55
2023-04-02T05:53:02.558Z,3.30
2023-04-02T05:55:42.980Z,3.10
2023-04-02T06:00:47.732Z,2.17
2023-04-02T06:03:23.934Z,2.60
2023-04-02T06:05:51.379Z,2.45
2023-04-02T06:08:21.159Z,2.20
2023-04-02T06:10:54.646Z,2.40
2023-04-02T06:13:20.988Z,2.30
2023-04-02T06:15:47.927Z,2.20
2023-04-02T06:18:20.583Z,1.90
2023-04-02T06:20:47.041Z,2.20
2023-04-02T06:23:19.304Z,2.42
2023-04-02T06:25:55.410Z,1.85
2023-04-02T06:28:26.343Z,2.13
2023-04-02T06:30:54.425Z,2.28
2023-04-02T06:33:21.191Z,2.00
2023-04-02T06:35:51.013Z,1.98
2023-04-02T06:38:19.531Z,1.70
2023-04-02T06:40:52.617Z,1.80
2023-04-02T06:43:35.964Z,1.52
2023-04-02T06:46:25.393Z,1.70
2023-04-02T06:48:53.140Z,1.50
2023-04-02T06:51:21.728Z,1.90
2023-04-02T06:53:49.712Z,2.00
2023-04-02T06:56:34.568Z,1.70
2023-04-02T06:59:01.069Z,1.98
2023-04-02T07:01:29.158Z,1.85
2023-04-02T07:03:56.324Z,1.63
2023-04-02T07:06:23.047Z,1.73
2023-04-02T07:08:49.455Z,1.98
2023-04-02T07:11:18.251Z,1.70
2023-04-02T07:13:46.733Z,2.25
2023-04-02T07:16:17.721Z,1.40
2023-04-02T07:18:44.263Z,2.05
2023-04-02T07:21:10.716Z,2.03
2023-04-02T07:23:37.316Z,1.98
2023-04-02T07:26:04.451Z,1.98
2023-04-02T07:28:31.168Z,2.03
2023-04-02T07:31:00.559Z,1.80
2023-04-02T07:33:28.643Z,1.77
2023-04-02T07:35:56.343Z,2.00
2023-04-02T07:38:22.755Z,2.08
2023-04-02T07:40:49.064Z,1.70
2023-04-02T07:43:15.635Z,2.00
2023-04-02T07:45:42.036Z,1.92
2023-04-02T07:48:10.067Z,1.95
2023-04-02T07:50:36.802Z,1.83
2023-04-02T07:53:03.187Z,2.55
2023-04-02T07:55:29.601Z,2.20
2023-04-02T07:57:57.040Z,2.50
2023-04-02T08:00:23.966Z,2.00
2023-04-02T08:02:50.593Z,2.20
2023-04-02T08:05:17.343Z,2.03
2023-04-02T08:07:43.708Z,2.13
2023-04-02T08:10:11.390Z,2.13
2023-04-02T08:12:37.966Z,2.28
2023-04-02T08:15:06.881Z,3.30
2023-04-02T08:17:33.770Z,2.78
2023-04-02T08:20:05.796Z,2.30
2023-04-02T08:22:32.750Z,2.25
2023-04-02T08:24:59.074Z,1.80
2023-04-02T08:27:26.321Z,1.95
2023-04-02T08:29:52.644Z,1.73
2023-04-02T08:32:18.886Z,2.30
2023-04-02T08:34:45.932Z,2.00
2023-04-02T08:37:12.810Z,1.92
2023-04-02T08:39:39.471Z,2.30
2023-04-02T08:42:17.859Z,2.22
2023-04-02T08:45:08.045Z,1.90
2023-04-02T08:47:41.178Z,1.60
2023-04-02T08:50:26.293Z,1.90
2023-04-02T08:52:52.754Z,2.10
2023-04-02T08:55:26.350Z,1.80
2023-04-02T08:58:07.861Z,1.98
2023-04-02T09:00:39.476Z,2.08
2023-04-02T09:03:19.928Z,2.67
2023-04-02T09:05:46.346Z,2.90
2023-04-02T09:08:20.437Z,3.13
2023-04-02T09:11:07.162Z,3.17
2023-04-02T09:13:34.722Z,3.33
2023-04-02T09:16:07.864Z,2.88
2023-04-02T09:18:34.469Z,2.50
2023-04-02T09:21:03.618Z,2.35
2023-04-02T09:23:30.165Z,2.38
2023-04-02T09:26:04.178Z,2.65
2023-04-02T09:28:31.597Z,2.42
2023-04-02T09:31:18.851Z,2.22
2023-04-02T09:33:49.816Z,2.20
2023-04-02T09:36:25.746Z,2.50
2023-04-02T09:39:00.601Z,2.00
2023-04-02T09:41:28.919Z,1.90
2023-04-02T09:44:14.451Z,1.77
2023-04-02T09:46:51.226Z,1.80
2023-04-02T09:49:18.117Z,2.00
2023-04-02T09:51:44.677Z,2.08
2023-04-02T09:54:16.033Z,1.90
2023-04-02T09:57:00.869Z,2.03
2023-04-02T09:59:27.573Z,2.45
2023-04-02T10:01:53.800Z,3.05
2023-04-02T10:04:38.942Z,2.47
2023-04-02T10:07:09.556Z,2.45
2023-04-02T10:09:37.852Z,2.40
2023-04-02T10:12:11.298Z,2.00
2023-04-02T10:14:39.807Z,2.00
2023-04-02T10:17:06.352Z,1.60
2023-04-02T10:19:36.420Z,1.80
2023-04-02T10:22:05.005Z,1.20
2023-04-02T10:24:31.349Z,2.13
2023-04-02T10:27:01.930Z,1.48
2023-04-02T10:29:46.836Z,1.60
2023-04-02T10:32:28.389Z,1.58
2023-04-02T10:35:14.034Z,1.60
2023-04-02T10:37:47.019Z,1.90
2023-04-02T10:40:24.171Z,1.77
2023-04-02T10:42:56.766Z,2.00
2023-04-02T10:45:39.998Z,1.80
2023-04-02T10:48:09.443Z,1.70
2023-04-02T10:50:41.737Z,1.90
2023-04-02T10:53:13.770Z,1.80
2023-04-02T10:55:43.278Z,1.85
2023-04-02T10:58:35.669Z,1.60
2023-04-02T11:01:04.834Z,1.77
2023-04-02T11:03:35.280Z,1.95
2023-04-02T11:06:05.272Z,1.65
2023-04-02T11:08:39.689Z,2.13
2023-04-02T11:11:14.855Z,2.00
2023-04-02T11:13:50.805Z,2.05
2023-04-02T11:16:17.133Z,1.52
2023-04-02T11:19:03.441Z,2.17
2023-04-02T11:21:29.713Z,1.52
2023-04-02T11:24:02.966Z,1.55
2023-04-02T11:26:41.490Z,2.08
2023-04-02T11:31:35.012Z,2.55
2023-04-02T11:34:01.542Z,2.28
2023-04-02T11:36:46.346Z,1.95
2023-04-02T11:39:17.299Z,1.40
2023-04-02T11:42:04.561Z,2.00
2023-04-02T11:44:31.402Z,1.55
2023-04-02T11:47:21.075Z,1.70
2023-04-02T11:49:50.306Z,2.08
2023-04-02T11:52:21.629Z,1.65
2023-04-02T11:54:58.857Z,1.42
2023-04-02T11:57:27.194Z,2.00
2023-04-02T11:59:59.624Z,1.75
2023-04-02T12:02:29.128Z,1.50
2023-04-02T12:05:04.380Z,2.22
2023-04-02T12:07:35.030Z,2.20
2023-04-02T12:10:22.300Z,2.70
2023-04-02T12:12:49.446Z,1.73
2023-04-02T12:15:34.304Z,1.60
2023-04-02T12:18:15.046Z,2.25
2023-04-02T12:20:42.838Z,1.77
2023-04-02T12:23:17.093Z,1.90
2023-04-02T12:25:46.418Z,1.70
2023-04-02T12:28:19.990Z,1.55
2023-04-02T12:30:47.804Z,1.92
2023-04-02T12:33:37.172Z,1.83
2023-04-02T12:36:05.672Z,2.00
2023-04-02T12:38:38.750Z,1.27
2023-04-02T12:41:06.396Z,2.03
2023-04-02T12:43:33.775Z,1.70
2023-04-02T12:46:02.130Z,1.67
2023-04-02T12:48:29.723Z,1.70
2023-04-02T12:50:56.617Z,1.57
2023-04-02T12:53:26.190Z,1.90
2023-04-02T12:55:53.665Z,1.70
2023-04-02T12:58:30.938Z,1.90
2023-04-02T13:01:16.360Z,1.70
2023-04-02T13:03:42.757Z,1.80
2023-04-02T13:06:18.577Z,1.80
2023-04-02T13:08:44.851Z,1.45
2023-04-02T13:11:11.178Z,1.45
2023-04-02T13:13:38.634Z,1.50
2023-04-02T13:16:17.253Z,1.45
2023-04-02T13:18:45.106Z,1.52
2023-04-02T13:21:14.373Z,1.52
2023-04-02T13:23:41.094Z,1.88
2023-04-02T13:26:10.482Z,1.88
2023-04-02T13:28:36.935Z,1.73
2023-04-02T13:31:03.304Z,1.42
2023-04-02T13:33:29.769Z,1.75
2023-04-02T13:35:56.174Z,1.40
2023-04-02T13:38:22.613Z,2.00
2023-04-02T13:40:49.079Z,1.50
2023-04-02T13:43:19.655Z,1.42
2023-04-02T13:45:49.139Z,1.85
2023-04-02T13:48:16.062Z,2.00
2023-04-02T13:50:42.443Z,1.50
2023-04-02T13:53:13.294Z,1.45
2023-04-02T13:55:40.839Z,1.42
2023-04-02T13:58:07.154Z,1.70
2023-04-02T14:00:34.137Z,1.45
2023-04-02T14:03:08.472Z,1.67
2023-04-02T14:05:39.278Z,1.50
2023-04-02T14:08:09.464Z,1.38
2023-04-02T14:10:38.565Z,1.30
2023-04-02T14:13:14.062Z,1.33
2023-04-02T14:15:59.190Z,1.40
2023-04-02T14:18:28.748Z,1.30
2023-04-02T14:20:55.087Z,1.38
2023-04-02T14:23:41.705Z,1.50
2023-04-02T14:26:18.960Z,1.27
2023-04-02T14:28:57.394Z,1.77
2023-04-02T14:31:31.638Z,1.70
2023-04-02T14:34:03.255Z,1.45
2023-04-02T14:36:44.604Z,1.30
2023-04-02T14:39:10.893Z,1.60
2023-04-02T14:41:42.658Z,1.45
2023-04-02T14:44:11.336Z,1.50
2023-04-02T14:46:38.345Z,1.50
2023-04-02T14:49:07.588Z,1.50
2023-04-02T14:51:52.942Z,1.50
2023-04-02T14:54:35.989Z,1.73
2023-04-02T14:57:05.594Z,1.52
2023-04-02T14:59:36.950Z,1.65
2023-04-02T15:02:23.726Z,1.60
2023-04-02T15:05:01.969Z,1.50
2023-04-02T15:07:36.077Z,1.58
2023-04-02T15:10:05.835Z,1.27
2023-04-02T15:12:37.119Z,1.38
2023-04-02T15:15:24.294Z,1.60
2023-04-02T15:17:51.021Z,1.40
2023-04-02T15:20:19.152Z,1.50
2023-04-02T15:23:05.667Z,1.45
2023-04-02T15:25:36.273Z,1.10
2023-04-02T15:28:08.856Z,1.13
2023-04-02T15:30:35.712Z,1.30
2023-04-02T15:33:23.934Z,1.48
2023-04-02T15:36:01.542Z,1.40
2023-04-02T15:38:32.532Z,1.30
2023-04-02T15:41:04.112Z,1.63
2023-04-02T15:43:31.541Z,1.30
2023-04-02T15:46:13.036Z,1.83
2023-04-02T15:49:06.092Z,1.10
2023-04-02T15:51:35.425Z,1.13
2023-04-02T15:54:01.667Z,1.23
2023-04-02T15:56:34.664Z,1.10
2023-04-02T15:59:19.562Z,1.20
2023-04-02T16:01:53.933Z,1.25
2023-04-02T16:04:26.964Z,2.83
2023-04-02T16:07:14.294Z,1.90
2023-04-02T16:09:49.767Z,1.90
2023-04-02T16:12:17.996Z,1.20
2023-04-02T16:14:45.623Z,1.55
2023-04-02T16:17:24.235Z,1.43
2023-04-02T16:19:53.080Z,1.40
2023-04-02T16:22:25.961Z,1.67
2023-04-02T16:25:06.941Z,1.38
2023-04-02T16:27:37.658Z,1.10
2023-04-02T16:30:03.953Z,1.17
2023-04-02T16:32:39.653Z,1.38
2023-04-02T16:38:07.782Z,1.50
2023-04-02T16:43:00.830Z,1.20
2023-04-02T16:45:46.119Z,1.65
2023-04-02T16:48:21.623Z,1.10
2023-04-02T16:51:10.967Z,1.05
2023-04-02T16:53:58.397Z,1.45
2023-04-02T16:56:42.914Z,1.80
2023-04-02T16:59:27.896Z,1.42
2023-04-02T17:01:57.367Z,1.30
2023-04-02T17:04:38.332Z,1.20
2023-04-02T17:07:04.735Z,1.05
2023-04-02T17:09:40.308Z,1.88
2023-04-02T17:12:10.684Z,1.35
2023-04-02T17:14:42.852Z,1.20
2023-04-02T17:17:11.504Z,1.20
2023-04-02T17:19:39.314Z,1.27
2023-04-02T17:22:06.104Z,1.10
2023-04-02T17:24:32.521Z,1.40
2023-04-02T17:27:03.568Z,1.30
2023-04-02T17:29:35.034Z,1.20
2023-04-02T17:32:02.685Z,1.23
2023-04-02T17:34:29.196Z,1.10
2023-04-02T17:37:15.196Z,1.10
2023-04-02T17:40:00.251Z,1.20
2023-04-02T17:42:35.252Z,1.35
2023-04-02T17:45:04.383Z,1.00
2023-04-02T17:47:39.817Z,1.70
2023-04-02T17:50:12.269Z,2.75
2023-04-02T17:52:56.076Z,2.17
2023-04-02T17:55:31.613Z,1.20
2023-04-02T17:58:05.766Z,1.70
2023-04-02T18:00:41.982Z,1.50
2023-04-02T18:03:29.474Z,1.67
2023-04-02T18:05:59.483Z,1.88
2023-04-02T18:08:29.021Z,1.35
2023-04-02T18:10:59.294Z,1.42
2023-04-02T18:13:36.119Z,1.55
2023-04-02T18:16:21.395Z,1.30
2023-04-02T18:19:03.428Z,1.80
2023-04-02T18:21:46.440Z,2.00
2023-04-02T18:24:31.691Z,1.92
2023-04-02T18:27:10.694Z,1.85
2023-04-02T18:29:52.293Z,1.75
2023-04-02T18:32:51.133Z,1.50
2023-04-02T18:35:25.252Z,1.85
2023-04-02T18:37:54.547Z,9.85
2023-04-02T18:40:21.979Z,8.82
2023-04-02T18:42:56.359Z,8.80
2023-04-02T18:45:32.577Z,4.07
2023-04-02T18:48:17.870Z,2.42
2023-04-02T18:50:46.917Z,1.70
2023-04-02T18:53:22.557Z,1.90
2023-04-02T18:55:53.935Z,1.60
2023-04-02T18:58:22.825Z,1.52
2023-04-02T19:00:50.017Z,1.65
2023-04-02T19:03:23.151Z,1.60
2023-04-02T19:05:49.863Z,1.88
2023-04-02T19:08:22.298Z,2.05
2023-04-02T19:10:52.949Z,1.63
2023-04-02T19:13:19.793Z,2.05
2023-04-02T19:16:04.995Z,1.90
2023-04-02T19:18:49.855Z,2.53
2023-04-02T19:21:33.255Z,1.90
2023-04-02T19:24:03.193Z,1.52
2023-04-02T19:26:33.572Z,2.05
2023-04-02T19:29:00.116Z,1.70
2023-04-02T19:31:35.835Z,1.67
2023-04-02T19:34:11.859Z,2.13
2023-04-02T19:36:45.736Z,2.13
2023-04-02T19:39:27.874Z,1.85
2023-04-02T19:42:01.512Z,2.00
2023-04-02T19:44:28.324Z,1.85
2023-04-02T19:46:54.897Z,2.03
2023-04-02T19:49:29.413Z,1.90
2023-04-02T19:51:56.801Z,1.73
2023-04-02T19:54:23.294Z,2.63
2023-04-02T19:56:50.148Z,8.13
2023-04-02T19:59:18.769Z,10.73
2023-04-02T20:01:46.657Z,10.07
2023-04-02T20:04:13.852Z,4.28
2023-04-02T20:06:40.346Z,2.42
2023-04-02T20:09:08.414Z,2.10
2023-04-02T20:11:35.837Z,1.80
2023-04-02T20:14:02.397Z,1.92
2023-04-02T20:16:28.739Z,2.05
2023-04-02T20:18:55.023Z,1.70
2023-04-02T20:21:21.665Z,2.22
2023-04-02T20:23:47.919Z,1.67
2023-04-02T20:26:14.248Z,1.80
2023-04-02T20:28:40.599Z,1.98
2023-04-02T20:31:08.683Z,1.88
2023-04-02T20:33:35.195Z,2.22
2023-04-02T20:36:04.270Z,1.80
2023-04-02T20:38:31.538Z,2.08
2023-04-02T20:40:58.498Z,2.73
2023-04-02T20:43:24.835Z,2.45
2023-04-02T20:45:55.055Z,2.70
2023-04-02T20:48:22.148Z,2.28
2023-04-02T20:50:49.156Z,2.58
2023-04-02T20:53:16.397Z,2.30
2023-04-02T20:55:43.041Z,2.40
2023-04-02T20:58:09.565Z,2.60
2023-04-02T21:00:35.964Z,2.47
2023-04-02T21:03:02.450Z,2.72
2023-04-02T21:05:28.798Z,2.70
2023-04-02T21:07:55.289Z,2.22
2023-04-02T21:10:21.664Z,2.35
2023-04-02T21:12:48.946Z,2.20
2023-04-02T21:15:15.321Z,2.33
2023-04-02T21:17:41.726Z,3.17
2023-04-02T21:28:27.254Z,2.45
2023-04-02T21:31:01.472Z,2.28
2023-04-02T21:33:27.922Z,2.60
2023-04-02T21:35:54.425Z,2.35
2023-04-02T21:38:20.674Z,2.58
2023-04-02T21:40:47.084Z,2.30
2023-04-02T21:43:13.313Z,2.50
2023-04-02T21:45:39.619Z,1.98
2023-04-02T21:48:06.555Z,1.85
2023-04-02T21:50:32.784Z,1.98
2023-04-02T21:52:59.109Z,2.20
2023-04-02T21:55:25.579Z,1.90
2023-04-02T21:57:51.820Z,1.88
2023-04-02T22:00:18.294Z,2.15
2023-04-02T22:02:44.620Z,2.40
2023-04-02T22:05:10.981Z,1.75
2023-04-02T22:07:37.249Z,2.13
2023-04-02T22:10:03.710Z,1.65
2023-04-02T22:12:29.962Z,1.80
2023-04-02T22:14:56.284Z,2.00
2023-04-02T22:17:22.805Z,1.60
2023-04-02T22:19:49.097Z,1.77
2023-04-02T22:22:15.329Z,1.70
2023-04-02T22:24:41.758Z,2.13
2023-04-02T22:27:08.056Z,1.80
2023-04-02T22:29:34.313Z,1.73
2023-04-02T22:32:00.844Z,2.08
2023-04-02T22:34:27.212Z,1.70
2023-04-02T22:36:53.608Z,1.80
2023-04-02T22:39:20.218Z,1.90
2023-04-02T22:41:46.521Z,1.88
2023-04-02T22:44:14.097Z,2.00
2023-04-02T22:46:40.610Z,1.50
2023-04-02T22:49:07.013Z,1.70
2023-04-02T22:51:33.297Z,1.42
2023-04-02T22:53:59.638Z,1.48
2023-04-02T22:56:28.517Z,1.30
2023-04-02T22:58:54.870Z,1.40
2023-04-02T23:01:26.229Z,1.50
2023-04-02T23:03:53.954Z,1.08
2023-04-02T23:06:20.434Z,1.23
2023-04-02T23:08:46.928Z,1.55
2023-04-02T23:11:18.307Z,1.83
2023-04-02T23:13:44.882Z,1.50
2023-04-02T23:16:12.420Z,1.70
2023-04-02T23:18:39.531Z,1.60
2023-04-02T23:21:06.192Z,1.38
2023-04-02T23:23:34.364Z,1.60
2023-04-02T23:26:07.990Z,1.55
2023-04-02T23:28:35.106Z,1.40
2023-04-02T23:31:02.155Z,1.30
2023-04-02T23:33:28.538Z,1.40
2023-04-02T23:35:54.882Z,1.50
2023-04-02T23:38:21.147Z,1.45
2023-04-02T23:40:47.392Z,1.10
2023-04-02T23:43:13.702Z,1.35
2023-04-02T23:45:39.977Z,1.30
2023-04-02T23:48:06.408Z,1.85
2023-04-02T23:50:33.175Z,1.38
2023-04-02T23:52:59.446Z,1.45
2023-04-02T23:55:25.894Z,1.40
2023-04-02T23:57:52.473Z,1.48
